Time;durP1;ratioP1;P1;durP2;ratioP2;P2;SDS_P1;SDS_P2;PMS_P1;PMS_P2;Temp;Humidity;BMP_temperature;BMP_pressure;BME280_temperature;BME280_humidity;BME280_pressure;Samples;Min_cycle;Max_cycle;Signal;HPM_P1;HPM_P2
2022/10/13 00:00:28;;;;;;;;;;;15.80;93.70;;;;;;6197123;23;20300;-79
2022/10/13 00:02:57;;;;;;;;;;;15.80;94.20;;;;;;6200511;23;20019;-80
2022/10/13 00:05:24;;;;;;;;;;;15.80;94.20;;;;;;6202078;23;19921;-79
2022/10/13 00:07:51;;;;;;;;;;;15.70;95.60;;;;;;6201197;23;19959;-80
2022/10/13 00:10:18;;;;;;;;;;;15.70;96.70;;;;;;6198194;23;20249;-81
2022/10/13 00:12:44;;;;;;;;;;;15.60;97.50;;;;;;6198952;23;19920;-79
2022/10/13 00:15:11;;;;;;;;;;;15.50;99.10;;;;;;6197356;23;19951;-79
2022/10/13 00:17:38;;;;;;;;;;;15.40;99.90;;;;;;6196649;23;20298;-79
2022/10/13 00:20:05;;;;;;;;;;;15.30;99.90;;;;;;6194451;23;19952;-80
2022/10/13 00:22:32;;;;;;;;;;;15.30;99.90;;;;;;6194402;23;19920;-79
2022/10/13 00:24:58;;;;;;;;;;;15.30;99.90;;;;;;6196569;23;19920;-79
2022/10/13 00:27:25;;;;;;;;;;;15.20;99.90;;;;;;6198967;23;19926;-80
2022/10/13 00:29:52;;;;;;;;;;;15.30;99.90;;;;;;6192645;23;19990;-79
2022/10/13 00:32:19;;;;;;;;;;;15.30;99.90;;;;;;6195424;23;20226;-79
2022/10/13 00:34:46;;;;;;;;;;;15.30;99.90;;;;;;6194554;23;19924;-80
2022/10/13 00:37:13;;;;;;;;;;;15.30;99.90;;;;;;6196443;23;19928;-79
2022/10/13 00:39:39;;;;;;;;;;;15.20;99.00;;;;;;6195428;23;19924;-79
2022/10/13 00:42:09;;;;;;;;;;;15.20;99.20;;;;;;6195156;23;20298;-79
2022/10/13 00:44:59;;;;;;;;;;;15.30;99.30;;;;;;6203598;23;19999;-81
2022/10/13 00:47:27;;;;;;;;;;;15.30;99.50;;;;;;6200693;23;19924;-80
2022/10/13 00:49:54;;;;;;;;;;;15.20;99.80;;;;;;6198467;23;19944;-79
2022/10/13 00:52:22;;;;;;;;;;;15.20;99.80;;;;;;6197980;23;19928;-80
2022/10/13 00:54:49;;;;;;;;;;;15.20;99.90;;;;;;6203148;23;19927;-80
2022/10/13 00:57:17;;;;;;;;;;;15.20;99.70;;;;;;6203126;23;19924;-79
2022/10/13 00:59:43;;;;;;;;;;;15.20;98.40;;;;;;6202506;23;19928;-79
2022/10/13 01:02:10;;;;;;;;;;;15.20;97.00;;;;;;6195933;23;19927;-78
2022/10/13 01:04:38;;;;;;;;;;;15.30;96.40;;;;;;6196723;23;19920;-78
2022/10/13 01:07:05;;;;;;;;;;;15.40;95.90;;;;;;6191830;23;20011;-78
2022/10/13 01:09:38;;;;;;;;;;;15.40;95.60;;;;;;6191167;23;20293;-78
2022/10/13 01:12:15;;;;;;;;;;;15.40;95.10;;;;;;6191863;23;19969;-78
2022/10/13 01:14:49;;;;;;;;;;;15.40;95.00;;;;;;6191257;23;20301;-78
2022/10/13 01:17:20;;;;;;;;;;;15.50;95.00;;;;;;6189482;23;19924;-79
2022/10/13 01:19:56;;;;;;;;;;;15.50;95.00;;;;;;6191937;23;19991;-79
2022/10/13 01:22:44;;;;;;;;;;;15.50;95.00;;;;;;6196136;23;19948;-80
2022/10/13 01:25:29;;;;;;;;;;;15.50;94.70;;;;;;6224633;23;19928;-80
2022/10/13 01:28:19;;;;;;;;;;;15.50;94.70;;;;;;6192744;23;20256;-78
2022/10/13 01:30:55;;;;;;;;;;;15.50;95.00;;;;;;6183946;23;19924;-80
2022/10/13 01:33:29;;;;;;;;;;;15.50;95.30;;;;;;6197365;23;19944;-81
2022/10/13 01:36:05;;;;;;;;;;;15.50;96.10;;;;;;6197979;23;19966;-79
2022/10/13 01:38:47;;;;;;;;;;;15.40;95.90;;;;;;6206846;23;19947;-80
2022/10/13 01:41:27;;;;;;;;;;;15.40;95.70;;;;;;6205221;23;19960;-79
2022/10/13 01:44:15;;;;;;;;;;;15.40;94.90;;;;;;6202868;23;19964;-79
2022/10/13 01:46:42;;;;;;;;;;;15.50;94.60;;;;;;6191646;23;19947;-79
2022/10/13 01:49:11;;;;;;;;;;;15.50;94.30;;;;;;6202037;23;19936;-79
2022/10/13 01:51:38;;;;;;;;;;;15.50;94.00;;;;;;6203674;23;19935;-80
2022/10/13 01:54:05;;;;;;;;;;;15.50;94.10;;;;;;6199083;23;19920;-79
2022/10/13 01:56:32;;;;;;;;;;;15.50;94.00;;;;;;6194543;23;20320;-80
2022/10/13 01:59:01;;;;;;;;;;;15.40;94.00;;;;;;6192988;23;19999;-80
2022/10/13 02:01:33;;;;;;;;;;;15.40;94.10;;;;;;6192915;23;20256;-79
2022/10/13 02:04:02;;;;;;;;;;;15.40;94.40;;;;;;6193698;23;20260;-78
2022/10/13 02:06:43;;;;;;;;;;;15.30;94.40;;;;;;6200041;23;19927;-79
2022/10/13 02:09:13;;;;;;;;;;;15.30;94.40;;;;;;6203935;23;19961;-79
2022/10/13 02:11:44;;;;;;;;;;;15.20;94.50;;;;;;6204936;23;19920;-80
2022/10/13 02:14:17;;;;;;;;;;;15.10;94.70;;;;;;6199569;23;19943;-79
2022/10/13 02:16:45;;;;;;;;;;;15.00;94.90;;;;;;6201755;23;19920;-79
2022/10/13 02:19:13;;;;;;;;;;;15.00;95.30;;;;;;6201047;23;20422;-80
2022/10/13 02:21:40;;;;;;;;;;;15.00;95.20;;;;;;6202452;23;19956;-82
2022/10/13 02:24:07;;;;;;;;;;;14.90;95.40;;;;;;6197387;23;19924;-79
2022/10/13 02:26:34;;;;;;;;;;;14.80;95.40;;;;;;6197940;23;19940;-79
2022/10/13 02:29:08;;;;;;;;;;;14.70;96.00;;;;;;6204798;23;19931;-81
2022/10/13 02:31:38;;;;;;;;;;;14.70;96.00;;;;;;6203197;23;20433;-79
2022/10/13 02:34:04;;;;;;;;;;;14.60;96.00;;;;;;6196163;23;19947;-80
2022/10/13 02:36:31;;;;;;;;;;;14.60;96.20;;;;;;6204798;23;19964;-79
2022/10/13 02:38:58;;;;;;;;;;;14.50;96.50;;;;;;6205219;23;19921;-79
2022/10/13 02:41:25;;;;;;;;;;;14.50;96.60;;;;;;6208108;23;19925;-79
2022/10/13 02:43:51;;;;;;;;;;;14.40;96.70;;;;;;6199422;23;20431;-80
2022/10/13 02:46:18;;;;;;;;;;;14.30;98.50;;;;;;6201930;23;19920;-79
2022/10/13 02:48:45;;;;;;;;;;;14.20;99.60;;;;;;6201565;23;19927;-79
2022/10/13 02:51:12;;;;;;;;;;;14.00;99.90;;;;;;6201849;23;19961;-80
2022/10/13 02:53:38;;;;;;;;;;;13.90;99.90;;;;;;6202768;23;20316;-79
2022/10/13 02:56:05;;;;;;;;;;;13.90;99.90;;;;;;6192690;23;20249;-81
2022/10/13 02:58:32;;;;;;;;;;;13.80;99.90;;;;;;6196519;23;19955;-79
2022/10/13 03:01:09;;;;;;;;;;;13.80;99.90;;;;;;6200765;23;19953;-78
2022/10/13 03:03:36;;;;;;;;;;;13.80;99.90;;;;;;6205534;23;19956;-79
2022/10/13 03:06:03;;;;;;;;;;;13.80;99.90;;;;;;6201940;23;19947;-81
2022/10/13 03:08:31;;;;;;;;;;;13.70;99.90;;;;;;6200808;23;19916;-79
2022/10/13 03:10:57;;;;;;;;;;;13.60;99.90;;;;;;6202805;23;19947;-79
2022/10/13 03:13:24;;;;;;;;;;;13.70;99.90;;;;;;6204976;23;19905;-80
2022/10/13 03:15:51;;;;;;;;;;;13.70;99.90;;;;;;6205756;23;19944;-80
2022/10/13 03:18:17;;;;;;;;;;;13.70;99.90;;;;;;6205716;23;19927;-80
2022/10/13 03:20:44;;;;;;;;;;;13.80;99.90;;;;;;6206623;23;19935;-80
2022/10/13 03:23:11;;;;;;;;;;;13.90;99.80;;;;;;6201520;23;19940;-79
2022/10/13 03:25:37;;;;;;;;;;;14.10;99.00;;;;;;6200847;23;19948;-80
2022/10/13 03:28:04;;;;;;;;;;;14.20;98.50;;;;;;6199107;23;19920;-78
2022/10/13 03:30:31;;;;;;;;;;;14.20;98.20;;;;;;6196646;23;20297;-79
2022/10/13 03:32:57;;;;;;;;;;;14.20;98.10;;;;;;6196773;23;19924;-81
2022/10/13 03:35:24;;;;;;;;;;;14.20;98.00;;;;;;6194183;23;20305;-79
2022/10/13 03:37:51;;;;;;;;;;;14.20;97.90;;;;;;6192723;23;19958;-80
2022/10/13 03:40:17;;;;;;;;;;;14.20;97.90;;;;;;6199397;23;19931;-80
2022/10/13 03:42:44;;;;;;;;;;;14.10;97.80;;;;;;6198558;23;20163;-78
2022/10/13 03:45:11;;;;;;;;;;;14.00;97.90;;;;;;6198561;23;19952;-79
2022/10/13 03:47:38;;;;;;;;;;;14.00;97.80;;;;;;6191645;23;19947;-79
2022/10/13 03:50:04;;;;;;;;;;;14.00;98.10;;;;;;6191197;23;19926;-78
2022/10/13 03:52:31;;;;;;;;;;;13.90;98.60;;;;;;6194331;23;19931;-78
2022/10/13 03:54:58;;;;;;;;;;;13.80;98.80;;;;;;6195173;23;19947;-80
2022/10/13 03:57:25;;;;;;;;;;;13.80;99.40;;;;;;6195542;23;19920;-78
2022/10/13 03:59:54;;;;;;;;;;;13.80;99.40;;;;;;6188652;23;20264;-80
2022/10/13 04:02:21;;;;;;;;;;;13.70;99.50;;;;;;6188880;23;19920;-78
2022/10/13 04:04:49;;;;;;;;;;;13.70;99.50;;;;;;6190146;23;19927;-79
2022/10/13 04:07:15;;;;;;;;;;;13.70;99.50;;;;;;6193322;23;19965;-79
2022/10/13 04:09:42;;;;;;;;;;;13.70;99.60;;;;;;6194570;23;19951;-78
2022/10/13 04:12:09;;;;;;;;;;;13.70;99.60;;;;;;6192399;23;19963;-79
2022/10/13 04:14:35;;;;;;;;;;;13.70;99.50;;;;;;6192804;23;20282;-78
2022/10/13 04:17:02;;;;;;;;;;;13.70;99.60;;;;;;6199047;23;20294;-80
2022/10/13 04:19:29;;;;;;;;;;;13.70;99.40;;;;;;6200421;23;19920;-78
2022/10/13 04:21:56;;;;;;;;;;;13.70;99.70;;;;;;6193069;23;19920;-78
2022/10/13 04:24:22;;;;;;;;;;;13.50;99.90;;;;;;6194263;23;19963;-79
2022/10/13 04:26:49;;;;;;;;;;;13.50;99.90;;;;;;6189444;23;19928;-79
2022/10/13 04:29:16;;;;;;;;;;;13.40;99.90;;;;;;6188783;23;20302;-78
2022/10/13 04:31:42;;;;;;;;;;;13.40;99.90;;;;;;6190217;23;19920;-79
2022/10/13 04:34:10;;;;;;;;;;;13.30;99.90;;;;;;6188445;23;19924;-78
2022/10/13 04:36:37;;;;;;;;;;;13.10;99.90;;;;;;6194051;23;19920;-79
2022/10/13 04:39:03;;;;;;;;;;;13.10;99.90;;;;;;6193933;23;19959;-78
2022/10/13 04:41:30;;;;;;;;;;;13.10;99.90;;;;;;6194161;23;19936;-78
2022/10/13 04:44:00;;;;;;;;;;;13.10;99.90;;;;;;6187056;23;19959;-80
2022/10/13 04:46:27;;;;;;;;;;;13.00;99.90;;;;;;6188891;23;20261;-78
2022/10/13 04:48:55;;;;;;;;;;;13.00;99.90;;;;;;6191839;23;19921;-78
2022/10/13 04:51:23;;;;;;;;;;;13.00;99.90;;;;;;6186811;23;19959;-80
2022/10/13 04:53:54;;;;;;;;;;;12.90;99.90;;;;;;6190609;23;20012;-78
2022/10/13 04:56:20;;;;;;;;;;;12.90;99.90;;;;;;6190634;23;19920;-78
2022/10/13 04:58:47;;;;;;;;;;;12.80;99.90;;;;;;6189414;23;19971;-78
2022/10/13 05:01:15;;;;;;;;;;;12.70;99.90;;;;;;6189701;23;20296;-79
2022/10/13 05:03:55;;;;;;;;;;;12.70;99.90;;;;;;6189509;23;19924;-79
2022/10/13 05:06:24;;;;;;;;;;;12.70;99.90;;;;;;6187681;23;19964;-79
2022/10/13 05:08:50;;;;;;;;;;;12.60;99.90;;;;;;6189586;23;19920;-78
2022/10/13 05:11:19;;;;;;;;;;;12.60;99.90;;;;;;6189671;23;19940;-79
2022/10/13 05:13:46;;;;;;;;;;;12.50;99.90;;;;;;6191130;23;19943;-78
2022/10/13 05:16:14;;;;;;;;;;;12.50;99.90;;;;;;6189464;23;20176;-78
2022/10/13 05:18:41;;;;;;;;;;;12.50;99.90;;;;;;6189319;23;19924;-79
2022/10/13 05:21:09;;;;;;;;;;;12.50;99.90;;;;;;6190080;23;19944;-79
2022/10/13 05:23:36;;;;;;;;;;;12.40;99.90;;;;;;6195364;23;19927;-78
2022/10/13 05:26:04;;;;;;;;;;;12.40;99.90;;;;;;6194272;23;19927;-78
2022/10/13 05:28:31;;;;;;;;;;;12.40;99.90;;;;;;6194234;23;19955;-78
2022/10/13 05:31:07;;;;;;;;;;;12.40;99.90;;;;;;6196442;23;19924;-78
2022/10/13 05:33:34;;;;;;;;;;;12.40;99.90;;;;;;6196186;23;19939;-78
2022/10/13 05:36:05;;;;;;;;;;;12.50;99.90;;;;;;6192031;23;19952;-79
2022/10/13 05:38:31;;;;;;;;;;;12.50;99.90;;;;;;6195964;23;19935;-79
2022/10/13 05:41:05;;;;;;;;;;;12.50;99.90;;;;;;6193989;23;19920;-79
2022/10/13 05:43:33;;;;;;;;;;;12.50;99.90;;;;;;6189625;23;19944;-79
2022/10/13 05:46:00;;;;;;;;;;;12.60;99.90;;;;;;6192160;23;20348;-78
2022/10/13 05:48:27;;;;;;;;;;;12.70;99.90;;;;;;6191092;23;20282;-78
2022/10/13 05:50:54;;;;;;;;;;;12.70;99.90;;;;;;6192065;23;19927;-78
2022/10/13 05:53:22;;;;;;;;;;;12.70;99.90;;;;;;6190770;23;19944;-78
2022/10/13 05:55:49;;;;;;;;;;;12.70;99.90;;;;;;6192406;23;19943;-78
2022/10/13 05:58:16;;;;;;;;;;;12.70;99.90;;;;;;6193353;23;19928;-79
2022/10/13 06:00:43;;;;;;;;;;;12.60;99.90;;;;;;6195128;23;19940;-79
2022/10/13 06:03:12;;;;;;;;;;;12.60;99.90;;;;;;6196995;23;19920;-79
2022/10/13 06:05:39;;;;;;;;;;;12.60;99.90;;;;;;6200422;23;19920;-79
2022/10/13 06:08:06;;;;;;;;;;;12.70;99.90;;;;;;6201264;23;19927;-78
2022/10/13 06:10:33;;;;;;;;;;;12.80;99.90;;;;;;6200822;23;19920;-79
2022/10/13 06:12:59;;;;;;;;;;;12.90;99.90;;;;;;6196993;23;19920;-79
2022/10/13 06:15:26;;;;;;;;;;;13.00;99.90;;;;;;6195137;23;19940;-79
2022/10/13 06:17:54;;;;;;;;;;;13.10;99.90;;;;;;6189040;23;19948;-79
2022/10/13 06:20:20;;;;;;;;;;;13.20;99.90;;;;;;6184764;23;19995;-79
2022/10/13 06:22:49;;;;;;;;;;;13.30;99.90;;;;;;6183096;23;19924;-79
2022/10/13 06:25:16;;;;;;;;;;;13.40;99.90;;;;;;6182017;23;19955;-80
2022/10/13 06:27:42;;;;;;;;;;;13.60;99.90;;;;;;6183582;23;19932;-79
2022/10/13 06:30:09;;;;;;;;;;;13.70;99.90;;;;;;6184936;23;19994;-79
2022/10/13 06:32:36;;;;;;;;;;;13.80;99.90;;;;;;6184605;23;20236;-79
2022/10/13 06:35:03;;;;;;;;;;;14.00;99.20;;;;;;6183143;23;19927;-79
2022/10/13 06:37:29;;;;;;;;;;;14.00;98.70;;;;;;6185082;23;19992;-79
2022/10/13 06:39:56;;;;;;;;;;;14.20;97.90;;;;;;6183447;23;19920;-79
2022/10/13 06:42:23;;;;;;;;;;;14.30;97.10;;;;;;6181920;23;19920;-79
2022/10/13 06:44:50;;;;;;;;;;;14.30;96.30;;;;;;6182123;23;19951;-79
2022/10/13 06:47:16;;;;;;;;;;;14.40;96.30;;;;;;6182198;23;19991;-80
2022/10/13 06:49:43;;;;;;;;;;;14.50;96.30;;;;;;6183194;23;19987;-79
2022/10/13 06:52:10;;;;;;;;;;;14.50;96.00;;;;;;6183473;23;19948;-79
2022/10/13 06:54:37;;;;;;;;;;;14.60;95.90;;;;;;6183464;23;20031;-79
2022/10/13 06:57:06;;;;;;;;;;;14.70;94.30;;;;;;6187013;23;19944;-80
2022/10/13 06:59:33;;;;;;;;;;;14.80;94.20;;;;;;6187384;23;19951;-80
2022/10/13 07:02:00;;;;;;;;;;;14.90;93.50;;;;;;6184343;23;19927;-79
2022/10/13 07:04:27;;;;;;;;;;;14.90;93.10;;;;;;6183477;23;19943;-79
2022/10/13 07:06:53;;;;;;;;;;;15.00;92.40;;;;;;6184043;23;19920;-79
2022/10/13 07:09:20;;;;;;;;;;;15.10;92.30;;;;;;6183953;23;20274;-79
2022/10/13 07:11:48;;;;;;;;;;;15.20;91.90;;;;;;6184346;23;20345;-80
2022/10/13 07:14:15;;;;;;;;;;;15.40;90.90;;;;;;6183681;23;19920;-79
2022/10/13 07:16:42;;;;;;;;;;;15.50;89.30;;;;;;6183810;23;20067;-79
2022/10/13 07:19:08;;;;;;;;;;;15.70;87.40;;;;;;6185934;23;19950;-79
2022/10/13 07:21:35;;;;;;;;;;;15.80;85.60;;;;;;6191348;23;19940;-80
2022/10/13 07:24:02;;;;;;;;;;;15.90;86.30;;;;;;6190149;23;19924;-80
2022/10/13 07:26:32;;;;;;;;;;;16.00;83.20;;;;;;6188218;23;20345;-79
2022/10/13 07:28:59;;;;;;;;;;;16.10;85.00;;;;;;6191723;23;19943;-79
2022/10/13 07:31:26;;;;;;;;;;;16.20;86.00;;;;;;6183611;23;19925;-81
2022/10/13 07:33:53;;;;;;;;;;;16.20;84.90;;;;;;6190382;23;19920;-80
2022/10/13 07:36:20;;;;;;;;;;;16.20;83.50;;;;;;6188250;23;19943;-80
2022/10/13 07:38:47;;;;;;;;;;;16.30;84.00;;;;;;6210667;23;19964;-80
2022/10/13 07:41:14;;;;;;;;;;;16.30;83.30;;;;;;6188106;23;19940;-79
2022/10/13 07:43:40;;;;;;;;;;;16.30;80.90;;;;;;6186242;23;20253;-79
2022/10/13 07:46:09;;;;;;;;;;;16.30;79.20;;;;;;6191902;23;19924;-80
2022/10/13 07:48:35;;;;;;;;;;;16.30;79.80;;;;;;6191293;23;19936;-79
2022/10/13 07:51:04;;;;;;;;;;;16.30;80.90;;;;;;6192891;23;20007;-79
2022/10/13 07:53:30;;;;;;;;;;;16.30;79.60;;;;;;6191385;23;20384;-79
2022/10/13 07:56:01;;;;;;;;;;;16.40;78.70;;;;;;6191104;23;19948;-80
2022/10/13 07:58:28;;;;;;;;;;;16.40;80.30;;;;;;6188279;23;19927;-79
2022/10/13 08:00:55;;;;;;;;;;;16.40;80.50;;;;;;6190566;23;20007;-79
2022/10/13 08:03:22;;;;;;;;;;;16.40;82.40;;;;;;6190145;23;20297;-81
2022/10/13 08:05:49;;;;;;;;;;;16.40;82.70;;;;;;6194665;23;20289;-79
2022/10/13 08:08:15;;;;;;;;;;;16.40;79.90;;;;;;6202112;23;19936;-81
2022/10/13 08:10:42;;;;;;;;;;;16.40;76.90;;;;;;6191791;23;19996;-82
2022/10/13 08:13:09;;;;;;;;;;;16.50;77.90;;;;;;6199272;23;20265;-80
2022/10/13 08:15:40;;;;;;;;;;;16.50;76.40;;;;;;6197091;23;19935;-80
2022/10/13 08:18:07;;;;;;;;;;;16.50;75.80;;;;;;6193757;23;19920;-80
2022/10/13 08:20:34;;;;;;;;;;;16.60;77.50;;;;;;6198475;23;19924;-80
2022/10/13 08:23:09;;;;;;;;;;;16.90;78.70;;;;;;6202057;23;19921;-80
2022/10/13 08:25:37;;;;;;;;;;;17.00;77.40;;;;;;6203951;23;19904;-80
2022/10/13 08:28:04;;;;;;;;;;;17.20;76.50;;;;;;6206015;23;19920;-79
2022/10/13 08:30:31;;;;;;;;;;;17.30;75.60;;;;;;6203311;23;20333;-80
2022/10/13 08:32:58;;;;;;;;;;;17.50;73.40;;;;;;6205085;23;19921;-80
2022/10/13 08:35:25;;;;;;;;;;;17.70;72.10;;;;;;6203548;23;20257;-79
2022/10/13 08:37:51;;;;;;;;;;;17.90;69.10;;;;;;6205158;23;20249;-80
2022/10/13 08:40:19;;;;;;;;;;;17.90;68.90;;;;;;6208565;23;19956;-80
2022/10/13 08:42:46;;;;;;;;;;;18.00;68.70;;;;;;6206422;23;19904;-80
2022/10/13 08:45:25;;;;;;;;;;;18.10;68.10;;;;;;6210414;23;19969;-80
2022/10/13 08:48:28;;;;;;;;;;;18.10;67.60;;;;;;6208786;23;20253;-80
2022/10/13 08:50:56;;;;;;;;;;;18.20;68.60;;;;;;6204978;23;19916;-80
2022/10/13 08:53:34;;;;;;;;;;;18.30;67.90;;;;;;6205429;23;19960;-80
2022/10/13 08:56:14;;;;;;;;;;;18.40;67.90;;;;;;6205339;23;19920;-80
2022/10/13 08:58:41;;;;;;;;;;;18.50;68.00;;;;;;6205652;23;19920;-81
2022/10/13 09:01:08;;;;;;;;;;;18.70;66.20;;;;;;6201896;23;19944;-80
2022/10/13 09:03:47;;;;;;;;;;;18.70;64.30;;;;;;6202965;23;19947;-79
2022/10/13 09:06:27;;;;;;;;;;;18.80;63.20;;;;;;6204523;23;19927;-80
2022/10/13 09:08:55;;;;;;;;;;;18.90;64.80;;;;;;6203535;23;20502;-79
2022/10/13 09:11:24;;;;;;;;;;;19.00;63.90;;;;;;6204504;23;19944;-81
2022/10/13 09:13:55;;;;;;;;;;;19.00;65.50;;;;;;6203032;23;19940;-80
2022/10/13 09:16:26;;;;;;;;;;;19.10;65.30;;;;;;6205484;23;19931;-80
2022/10/13 09:18:53;;;;;;;;;;;19.20;63.10;;;;;;6203586;23;19928;-80
2022/10/13 09:21:24;;;;;;;;;;;19.20;63.50;;;;;;6203760;23;19921;-79
2022/10/13 09:23:52;;;;;;;;;;;19.20;63.20;;;;;;6204396;23;19905;-80
2022/10/13 09:26:22;;;;;;;;;;;19.10;64.40;;;;;;6201804;23;19924;-80
2022/10/13 09:28:49;;;;;;;;;;;19.10;64.60;;;;;;6204340;23;19953;-80
2022/10/13 09:31:17;;;;;;;;;;;19.10;64.60;;;;;;6205989;23;19920;-80
2022/10/13 09:33:45;;;;;;;;;;;19.10;65.20;;;;;;6208488;23;19951;-80
2022/10/13 09:36:15;;;;;;;;;;;19.10;64.20;;;;;;6204345;23;19979;-80
2022/10/13 09:38:43;;;;;;;;;;;19.20;63.90;;;;;;6201605;23;19905;-80
2022/10/13 09:41:20;;;;;;;;;;;19.30;63.70;;;;;;6204086;23;19927;-80
2022/10/13 09:43:46;;;;;;;;;;;19.40;62.90;;;;;;6194717;23;19991;-82
2022/10/13 09:46:16;;;;;;;;;;;19.50;63.80;;;;;;6197875;23;19924;-82
2022/10/13 09:48:46;;;;;;;;;;;19.70;63.10;;;;;;6183730;23;19983;-82
2022/10/13 09:51:33;;;;;;;;;;;19.80;63.40;;;;;;6199673;23;19968;-83
2022/10/13 09:54:00;;;;;;;;;;;19.80;62.60;;;;;;6204485;23;19956;-84
2022/10/13 09:56:50;;;;;;;;;;;19.90;62.90;;;;;;6205299;23;19931;-83
2022/10/13 09:59:26;;;;;;;;;;;19.90;62.70;;;;;;6195241;23;19915;-83
2022/10/13 10:01:53;;;;;;;;;;;20.10;62.20;;;;;;6207783;23;19969;-83
2022/10/13 10:04:22;;;;;;;;;;;20.10;62.40;;;;;;6207639;23;19924;-83
2022/10/13 10:06:49;;;;;;;;;;;20.10;62.30;;;;;;6206057;23;19920;-83
2022/10/13 10:09:40;;;;;;;;;;;20.20;62.90;;;;;;6199510;23;19920;-83
2022/10/13 10:12:11;;;;;;;;;;;20.20;63.30;;;;;;6202206;23;20418;-82
2022/10/13 10:14:38;;;;;;;;;;;20.30;62.60;;;;;;6207899;23;19944;-83
2022/10/13 10:17:05;;;;;;;;;;;20.40;63.00;;;;;;6207386;23;19920;-84
2022/10/13 10:19:44;;;;;;;;;;;20.40;62.60;;;;;;6208698;23;19912;-82
2022/10/13 10:22:31;;;;;;;;;;;20.40;62.90;;;;;;6207152;23;19921;-83
2022/10/13 10:25:13;;;;;;;;;;;20.40;62.20;;;;;;6206079;23;19924;-83
2022/10/13 10:27:43;;;;;;;;;;;20.30;62.20;;;;;;6206943;23;19920;-82
2022/10/13 10:30:19;;;;;;;;;;;20.20;62.90;;;;;;6203231;23;19908;-82
2022/10/13 10:32:51;;;;;;;;;;;20.10;63.30;;;;;;6206085;23;19921;-82
2022/10/13 10:35:29;;;;;;;;;;;20.00;65.30;;;;;;6208529;23;19916;-83
2022/10/13 10:38:04;;;;;;;;;;;20.10;64.90;;;;;;6207522;23;19912;-82
2022/10/13 10:40:37;;;;;;;;;;;20.20;64.60;;;;;;6206761;23;19911;-82
2022/10/13 10:43:19;;;;;;;;;;;20.30;64.10;;;;;;6206430;23;20369;-82
2022/10/13 10:45:46;;;;;;;;;;;20.50;62.30;;;;;;6208649;23;19904;-82
2022/10/13 10:48:19;;;;;;;;;;;20.50;63.50;;;;;;6205044;23;19929;-83
2022/10/13 10:50:45;;;;;;;;;;;20.70;61.70;;;;;;6207048;23;19931;-83
2022/10/13 10:53:18;;;;;;;;;;;20.90;60.80;;;;;;6205212;23;19912;-83
2022/10/13 10:56:02;;;;;;;;;;;21.00;60.40;;;;;;6206849;23;19908;-82
2022/10/13 10:58:38;;;;;;;;;;;21.00;60.00;;;;;;6206516;23;19920;-82
2022/10/13 11:01:11;;;;;;;;;;;21.00;59.60;;;;;;6203697;23;19911;-82
2022/10/13 11:03:40;;;;;;;;;;;21.00;59.40;;;;;;6202908;23;19924;-82
2022/10/13 11:06:16;;;;;;;;;;;20.90;60.70;;;;;;6203490;23;19904;-83
2022/10/13 11:08:45;;;;;;;;;;;20.90;62.10;;;;;;6207952;23;20143;-82
2022/10/13 11:11:21;;;;;;;;;;;20.80;62.40;;;;;;6201937;23;19909;-82
2022/10/13 11:13:54;;;;;;;;;;;20.80;62.30;;;;;;6204202;23;20445;-82
2022/10/13 11:16:29;;;;;;;;;;;20.90;61.40;;;;;;6204156;23;19931;-83
2022/10/13 11:19:04;;;;;;;;;;;20.60;60.90;;;;;;6205151;23;20008;-82
2022/10/13 11:21:50;;;;;;;;;;;20.40;62.70;;;;;;6204308;23;19952;-82
2022/10/13 11:24:28;;;;;;;;;;;20.30;63.40;;;;;;6205818;23;20329;-82
2022/10/13 11:27:15;;;;;;;;;;;20.30;62.90;;;;;;6205570;23;19921;-82
2022/10/13 11:29:42;;;;;;;;;;;20.40;63.50;;;;;;6203409;23;19948;-82
2022/10/13 11:35:13;;;;;;;;;;;20.60;63.30;;;;;;6207319;23;19912;-82
2022/10/13 11:37:49;;;;;;;;;;;20.70;62.60;;;;;;6204520;23;19904;-83
2022/10/13 11:40:34;;;;;;;;;;;20.60;62.30;;;;;;6208223;23;19931;-82
2022/10/13 11:43:16;;;;;;;;;;;20.60;62.50;;;;;;6206660;23;20381;-83
2022/10/13 11:46:03;;;;;;;;;;;20.60;63.00;;;;;;6206861;23;19920;-82
2022/10/13 11:48:48;;;;;;;;;;;20.70;62.70;;;;;;6206999;23;19904;-82
2022/10/13 11:51:22;;;;;;;;;;;20.80;62.70;;;;;;6206115;23;19935;-82
2022/10/13 11:54:03;;;;;;;;;;;20.80;62.90;;;;;;6207945;23;19921;-83
2022/10/13 11:56:56;;;;;;;;;;;20.50;61.90;;;;;;6206308;23;19904;-82
2022/10/13 11:59:30;;;;;;;;;;;20.50;63.20;;;;;;6203232;23;19924;-82
2022/10/13 12:02:09;;;;;;;;;;;20.40;63.50;;;;;;6207541;23;19924;-82
2022/10/13 12:04:36;;;;;;;;;;;20.40;64.00;;;;;;6207661;23;19904;-82
2022/10/13 12:07:08;;;;;;;;;;;20.20;64.30;;;;;;6207055;23;19940;-82
2022/10/13 12:09:38;;;;;;;;;;;20.00;64.70;;;;;;6205868;23;19908;-82
2022/10/13 12:12:13;;;;;;;;;;;19.90;66.30;;;;;;6208484;23;19916;-83
2022/10/13 12:14:42;;;;;;;;;;;19.90;65.70;;;;;;6207840;23;19928;-82
2022/10/13 12:17:20;;;;;;;;;;;19.80;66.90;;;;;;6208367;23;19936;-82
2022/10/13 12:19:50;;;;;;;;;;;19.90;67.10;;;;;;6207074;23;19927;-82
2022/10/13 12:22:16;;;;;;;;;;;19.90;67.40;;;;;;6204525;23;19931;-81
2022/10/13 12:24:55;;;;;;;;;;;20.00;67.70;;;;;;6200943;23;19921;-81
2022/10/13 12:27:22;;;;;;;;;;;20.00;66.70;;;;;;6205919;23;19943;-81
2022/10/13 12:29:49;;;;;;;;;;;20.10;67.30;;;;;;6201380;23;19920;-83
2022/10/13 12:32:24;;;;;;;;;;;20.20;68.00;;;;;;6201444;23;19955;-83
2022/10/13 12:34:50;;;;;;;;;;;20.40;67.90;;;;;;6201234;23;19920;-81
2022/10/13 12:37:28;;;;;;;;;;;20.40;67.50;;;;;;6201845;23;19944;-83
2022/10/13 12:39:56;;;;;;;;;;;20.40;66.30;;;;;;6199616;23;19920;-83
2022/10/13 12:42:33;;;;;;;;;;;20.50;67.60;;;;;;6203702;23;20407;-83
2022/10/13 12:45:01;;;;;;;;;;;20.70;67.20;;;;;;6202863;23;19943;-83
2022/10/13 12:47:36;;;;;;;;;;;20.90;64.50;;;;;;6202296;23;19931;-83
2022/10/13 12:50:21;;;;;;;;;;;21.00;63.60;;;;;;6199966;23;19931;-83
2022/10/13 12:52:49;;;;;;;;;;;21.00;63.60;;;;;;6200453;23;19904;-81
2022/10/13 12:55:18;;;;;;;;;;;21.00;64.20;;;;;;6199916;23;19931;-81
2022/10/13 12:57:46;;;;;;;;;;;21.00;64.20;;;;;;6200322;23;19928;-83
2022/10/13 13:00:21;;;;;;;;;;;21.10;64.40;;;;;;6200691;23;19915;-81
2022/10/13 13:02:55;;;;;;;;;;;21.10;65.10;;;;;;6198401;23;19947;-83
2022/10/13 13:05:48;;;;;;;;;;;21.20;63.60;;;;;;6200727;23;19939;-80
2022/10/13 13:08:25;;;;;;;;;;;21.20;63.80;;;;;;6201221;23;20361;-81
2022/10/13 13:10:52;;;;;;;;;;;21.20;65.20;;;;;;6200618;23;19947;-81
2022/10/13 13:13:21;;;;;;;;;;;21.20;63.90;;;;;;6198998;23;19920;-81
2022/10/13 13:15:48;;;;;;;;;;;21.30;63.70;;;;;;6201296;23;19934;-82
2022/10/13 13:18:29;;;;;;;;;;;21.30;65.10;;;;;;6201957;23;19920;-81
2022/10/13 13:20:56;;;;;;;;;;;21.40;64.60;;;;;;6199245;23;20348;-81
2022/10/13 13:23:23;;;;;;;;;;;21.40;65.00;;;;;;6198298;23;19932;-82
2022/10/13 13:26:01;;;;;;;;;;;21.40;62.90;;;;;;6199803;23;19920;-81
2022/10/13 13:28:28;;;;;;;;;;;21.30;62.50;;;;;;6198663;23;20387;-82
2022/10/13 13:30:55;;;;;;;;;;;21.20;65.60;;;;;;6202315;23;19931;-82
2022/10/13 13:33:22;;;;;;;;;;;21.10;64.50;;;;;;6201409;23;20314;-81
2022/10/13 13:35:48;;;;;;;;;;;21.20;64.80;;;;;;6201157;23;19921;-81
2022/10/13 13:38:15;;;;;;;;;;;21.20;64.50;;;;;;6200760;23;19925;-81
2022/10/13 13:40:42;;;;;;;;;;;21.30;65.90;;;;;;6201594;23;19955;-81
2022/10/13 13:43:09;;;;;;;;;;;21.30;64.00;;;;;;6202195;23;19928;-81
2022/10/13 13:45:36;;;;;;;;;;;21.10;64.60;;;;;;6201167;23;19957;-81
2022/10/13 13:48:02;;;;;;;;;;;20.90;64.50;;;;;;6200967;23;20253;-81
2022/10/13 13:50:33;;;;;;;;;;;20.70;64.90;;;;;;6200139;23;19928;-81
2022/10/13 13:53:01;;;;;;;;;;;20.70;64.70;;;;;;6202192;23;19920;-82
2022/10/13 13:55:28;;;;;;;;;;;20.80;66.00;;;;;;6207673;23;19915;-82
2022/10/13 13:57:55;;;;;;;;;;;20.80;65.10;;;;;;6201320;23;19952;-81
2022/10/13 14:00:22;;;;;;;;;;;20.60;64.90;;;;;;6200399;23;19936;-81
2022/10/13 14:02:49;;;;;;;;;;;20.60;65.50;;;;;;6197660;23;19927;-81
2022/10/13 14:05:16;;;;;;;;;;;20.70;65.90;;;;;;6199181;23;19986;-81
2022/10/13 14:07:43;;;;;;;;;;;20.70;66.30;;;;;;6207067;23;19904;-82
2022/10/13 14:10:09;;;;;;;;;;;20.70;64.80;;;;;;6207577;23;19911;-82
2022/10/13 14:12:36;;;;;;;;;;;20.80;67.20;;;;;;6209914;23;19904;-81
2022/10/13 14:15:03;;;;;;;;;;;20.90;67.30;;;;;;6208863;23;19911;-81
2022/10/13 14:17:30;;;;;;;;;;;20.80;65.30;;;;;;6207724;23;19920;-80
2022/10/13 14:19:57;;;;;;;;;;;20.80;66.20;;;;;;6204694;23;19975;-81
2022/10/13 14:22:24;;;;;;;;;;;20.80;66.00;;;;;;6201785;23;19927;-81
2022/10/13 14:24:51;;;;;;;;;;;20.80;65.70;;;;;;6202942;23;19928;-81
2022/10/13 14:27:18;;;;;;;;;;;20.80;66.30;;;;;;6203500;23;19927;-81
2022/10/13 14:29:45;;;;;;;;;;;21.00;66.60;;;;;;6204227;23;19928;-83
2022/10/13 14:32:11;;;;;;;;;;;21.00;65.40;;;;;;6200380;23;19911;-81
2022/10/13 14:34:38;;;;;;;;;;;20.80;66.30;;;;;;6198938;23;19947;-79